»·PEaware :: N416JK KPHX-KBLH

N416JK :: KPHX-KBLH

FLIGHT INFORMATION

Flight Status: Arrived
Operator: Privately registered:
United States
More flights under this callsign
Pilot: John K. (4202)
Aircraft: Unknown
(EPIC)
More flights by this aircraft type
Origin: KPHX Phoenix Sky Harbor Intl
United States
Destination: KBLH Blythe
United States
More flights between these airports :: More routes between these airports
Route: +BXK4 BXK V16 BLH
File this flight plan on PilotEdge
Remarks: NO DP
Altitude:
(Current/Filed)
6,000ft
Speed:
(Current/Filed)
220kts
Departed: 30-Jun-17 02:01 PM
Arrived: 30-Jun-17 02:36 PM
Distance/Time
Traveled:
136nm/0:35
Distance/Time
To Go:
Arrived

Flight Plot

Page will automatically refresh every two minutes.

Flight plan parsing failed; only flown route is shown


Map Options




Map Legend


Flown Route
Filed Route
Departure Airport
Arrival Airport
Navaid (VOR, NDB)
Fix

Horizontal Profiles

Position Reports

Time Latitude Longitude Heading Altitude Ground
Speed
30-Jun-17 13:40 33.426674 -112.024079 32 1138ft 0kts
30-Jun-17 13:41 33.426674 -112.024079 32 1138ft 0kts
30-Jun-17 13:42 33.426674 -112.024079 32 1138ft 0kts
30-Jun-17 13:43 33.426674 -112.024079 32 1138ft 0kts
30-Jun-17 13:44 33.426674 -112.024079 32 1138ft 0kts
30-Jun-17 13:45 33.426674 -112.024079 32 1138ft 0kts
30-Jun-17 13:46 33.426674 -112.024079 32 1138ft 0kts
30-Jun-17 13:47 33.426674 -112.024079 32 1138ft 0kts
30-Jun-17 13:48 33.426674 -112.024079 32 1138ft 0kts
30-Jun-17 13:49 33.426674 -112.024079 32 1138ft 0kts
30-Jun-17 13:50 33.426674 -112.024079 32 1138ft 0kts
30-Jun-17 13:51 33.426674 -112.024079 32 1138ft 0kts
30-Jun-17 13:52 33.426674 -112.024079 32 1138ft 0kts
30-Jun-17 13:53 33.426674 -112.024079 32 1138ft 0kts
30-Jun-17 13:54 33.426690 -112.024067 30 1138ft 0kts
30-Jun-17 13:55 33.426690 -112.024067 30 1138ft 0kts
30-Jun-17 13:56 33.426690 -112.024067 30 1138ft 0kts
30-Jun-17 13:57 33.426847 -112.024057 352 1138ft 1kts
30-Jun-17 13:58 33.426708 -112.024037 351 1138ft 0kts
30-Jun-17 13:59 33.427753 -112.021901 89 1138ft 24kts
30-Jun-17 14:00 33.427781 -112.013412 84 1138ft 26kts
30-Jun-17 14:01 33.427922 -112.005356 18 1138ft 5kts
30-Jun-17 14:02 33.427931 -112.005352 17 1138ft 0kts
30-Jun-17 14:03 33.427961 -112.005341 14 1138ft 0kts
30-Jun-17 14:04 33.429065 -112.029069 271 1421ft 179kts
30-Jun-17 14:05 33.415534 -112.098811 249 2837ft 253kts
30-Jun-17 14:06 33.390285 -112.182422 249 3744ft 260kts
30-Jun-17 14:07 33.378128 -112.257400 289 4607ft 220kts
30-Jun-17 14:08 33.398322 -112.323619 290 5501ft 215kts
30-Jun-17 14:09 33.419975 -112.394575 290 6035ft 244kts
30-Jun-17 14:10 33.444438 -112.474654 290 6032ft 263kts
30-Jun-17 14:11 33.448014 -112.562803 269 6027ft 268kts
30-Jun-17 14:12 33.449763 -112.652566 271 6028ft 274kts
30-Jun-17 14:13 33.451778 -112.745210 271 6027ft 281kts
30-Jun-17 14:14 33.454469 -112.838975 275 6028ft 282kts
30-Jun-17 14:15 33.462090 -112.932541 276 6036ft 283kts
30-Jun-17 14:16 33.469657 -113.026687 276 6036ft 283kts
30-Jun-17 14:17 33.477208 -113.120409 276 6036ft 283kts
30-Jun-17 14:18 33.484860 -113.214378 275 6036ft 283kts
30-Jun-17 14:19 33.492216 -113.308265 275 6036ft 283kts
30-Jun-17 14:20 33.499426 -113.401559 275 6035ft 276kts
30-Jun-17 14:21 33.506371 -113.492363 275 6036ft 272kts
30-Jun-17 14:22 33.513191 -113.582522 275 6047ft 271kts
30-Jun-17 14:23 33.519902 -113.671944 276 6063ft 268kts
30-Jun-17 14:24 33.526565 -113.761350 274 6076ft 270kts
30-Jun-17 14:25 33.533168 -113.851327 274 6072ft 272kts
30-Jun-17 14:26 33.539735 -113.941536 274 6066ft 272kts
30-Jun-17 14:27 33.545976 -114.033330 274 6056ft 280kts
30-Jun-17 14:28 33.552721 -114.126900 274 6031ft 283kts
30-Jun-17 14:29 33.559570 -114.221079 273 6013ft 284kts
30-Jun-17 14:30 33.566199 -114.315776 273 6008ft 284kts
30-Jun-17 14:31 33.572683 -114.410160 273 6008ft 284kts
30-Jun-17 14:32 33.578551 -114.498040 273 6000ft 223kts
30-Jun-17 14:33 33.583148 -114.566323 272 4617ft 192kts
30-Jun-17 14:34 33.586915 -114.622070 271 3145ft 146kts
30-Jun-17 14:35 33.604403 -114.660680 305 1709ft 115kts
30-Jun-17 14:36 33.625639 -114.690894 349 1293ft 157kts
30-Jun-17 14:37 33.661071 -114.701377 267 907ft 129kts
30-Jun-17 14:38 33.637506 -114.716534 180 506ft 92kts
30-Jun-17 14:39 33.619094 -114.716131 96 402ft 17kts
30-Jun-17 14:40 33.616616 -114.715140 177 402ft 20kts
30-Jun-17 14:41 33.614333 -114.714204 43 402ft 0kts
30-Jun-17 14:42 33.614333 -114.714204 43 402ft 0kts

Navigation Log

Ident Type
Flight plan parsing failed, navigation log unavailable